Time,TemperatureF,DewpointF,PressureIn,WindDirection,WindDirectionDegrees,WindSpeedMPH,WindSpeedGustMPH,Humidity,HourlyPrecipIn,Conditions,Clouds,dailyrainin,SoftwareType,DateUTC
2013-11-19 00:00:00,38.9,32.3,29.69,South,180,6.0,12.0,77,0.00,,---,0.00,VWS V12.07,2013-11-19 08:00:00,
2013-11-19 00:01:00,39.9,32.6,29.72,SSW,198,11.0,35.0,75,0.01,,---,0.04,VWS V12.07,2013-11-19 08:01:00,
2013-11-19 00:02:00,39.9,32.6,29.72,South,172,16.0,35.0,75,0.01,,---,0.04,VWS V12.07,2013-11-19 08:02:00,
2013-11-19 00:03:00,39.9,32.6,29.72,SSW,202,11.0,35.0,75,0.01,,---,0.04,VWS V12.07,2013-11-19 08:03:00,
2013-11-19 00:05:00,40.1,33.2,29.72,SSW,196,12.0,35.0,76,0.01,,---,0.04,VWS V12.07,2013-11-19 08:05:00,
2013-11-19 00:06:00,39.9,33.0,29.72,SW,215,7.0,35.0,76,0.01,,---,0.04,VWS V12.07,2013-11-19 08:06:00,
2013-11-19 00:08:00,39.9,33.0,29.72,SW,222,9.0,35.0,76,0.01,,---,0.04,VWS V12.07,2013-11-19 08:08:00,
2013-11-19 00:10:00,39.9,33.0,29.72,South,181,10.0,35.0,76,0.01,,---,0.05,VWS V12.07,2013-11-19 08:10:00,
2013-11-19 00:11:00,39.9,33.0,29.72,South,181,9.0,35.0,76,0.01,,---,0.05,VWS V12.07,2013-11-19 08:11:00,
2013-11-19 00:12:00,39.9,33.0,29.72,SSW,209,10.0,35.0,76,0.02,,---,0.05,VWS V12.07,2013-11-19 08:12:00,
2013-11-19 00:13:00,39.8,33.5,29.72,SSW,199,19.0,35.0,78,0.02,,---,0.05,VWS V12.07,2013-11-19 08:13:00,
2013-11-19 00:14:00,39.9,33.6,29.72,South,191,13.0,35.0,78,0.02,,---,0.05,VWS V12.07,2013-11-19 08:14:00,
2013-11-19 00:15:00,39.8,32.5,29.72,South,188,12.0,35.0,75,0.02,,---,0.05,VWS V12.07,2013-11-19 08:15:00,
2013-11-19 00:16:00,39.8,33.2,29.72,SSW,198,9.0,35.0,77,0.02,,---,0.05,VWS V12.07,2013-11-19 08:16:00,
2013-11-19 00:17:00,39.8,33.2,29.72,SSW,192,12.0,35.0,77,0.02,,---,0.05,VWS V12.07,2013-11-19 08:17:00,
2013-11-19 00:19:00,39.8,32.9,29.72,SSW,202,10.0,35.0,76,0.02,,---,0.05,VWS V12.07,2013-11-19 08:19:00,
2013-11-19 00:20:00,39.8,32.9,29.72,SSW,210,13.0,35.0,76,0.02,,---,0.05,VWS V12.07,2013-11-19 08:20:00,
2013-11-19 00:21:00,39.9,32.6,29.72,SSW,192,19.0,35.0,75,0.02,,---,0.05,VWS V12.07,2013-11-19 08:21:00,
2013-11-19 00:22:00,39.8,32.5,29.71,SSW,198,7.0,35.0,75,0.02,,---,0.05,VWS V12.07,2013-11-19 08:22:00,
2013-11-19 00:24:00,39.9,32.6,29.71,South,184,12.0,35.0,75,0.02,,---,0.05,VWS V12.07,2013-11-19 08:24:00,
2013-11-19 00:25:00,39.8,32.5,29.71,SW,226,7.0,35.0,75,0.02,,---,0.05,VWS V12.07,2013-11-19 08:25:00,
2013-11-19 00:26:00,39.8,32.9,29.71,SSW,203,10.0,35.0,76,0.02,,---,0.05,VWS V12.07,2013-11-19 08:26:00,
2013-11-19 00:27:00,39.6,33.0,29.71,South,186,12.0,35.0,77,0.02,,---,0.05,VWS V12.07,2013-11-19 08:27:00,
2013-11-19 00:29:00,39.6,33.0,29.71,South,176,8.0,35.0,77,0.02,,---,0.05,VWS V12.07,2013-11-19 08:29:00,
2013-11-19 00:30:00,39.5,32.6,29.68,South,180,11.0,26.0,76,0.00,,---,0.00,VWS V12.07,2013-11-19 08:30:00,
2013-11-19 00:31:00,39.6,32.7,29.71,SW,215,10.0,35.0,76,0.02,,---,0.05,VWS V12.07,2013-11-19 08:31:00,
2013-11-19 00:32:00,39.6,32.7,29.71,SSW,196,12.0,35.0,76,0.02,,---,0.05,VWS V12.07,2013-11-19 08:32:00,
2013-11-19 00:33:00,39.8,32.9,29.71,South,176,18.0,35.0,76,0.02,,---,0.05,VWS V12.07,2013-11-19 08:33:00,
2013-11-19 00:36:00,39.6,33.0,29.71,South,189,17.0,35.0,77,0.02,,---,0.05,VWS V12.07,2013-11-19 08:36:00,
2013-11-19 00:37:00,39.8,33.2,29.70,SSW,192,10.0,35.0,77,0.02,,---,0.05,VWS V12.07,2013-11-19 08:37:00,
2013-11-19 00:39:00,39.6,32.7,29.70,South,175,18.0,35.0,76,0.02,,---,0.05,VWS V12.07,2013-11-19 08:39:00,
2013-11-19 00:40:00,39.5,32.6,29.68,South,180,10.0,19.0,76,0.00,,---,0.00,VWS V12.07,2013-11-19 08:40:00,
2013-11-19 00:42:00,39.6,33.3,29.70,South,185,10.0,35.0,78,0.02,,---,0.05,VWS V12.07,2013-11-19 08:42:00,
2013-11-19 00:44:00,39.6,33.3,29.70,SSW,213,10.0,35.0,78,0.02,,---,0.05,VWS V12.07,2013-11-19 08:44:00,
2013-11-19 00:47:00,39.8,32.9,29.70,South,169,11.0,35.0,76,0.02,,---,0.05,VWS V12.07,2013-11-19 08:47:00,
2013-11-19 00:48:00,39.8,32.9,29.70,SW,226,13.0,35.0,76,0.01,,---,0.05,VWS V12.07,2013-11-19 08:48:00,
2013-11-19 00:50:00,39.8,32.5,29.70,South,184,13.0,35.0,75,0.01,,---,0.05,VWS V12.07,2013-11-19 08:50:00,
2013-11-19 00:52:00,39.8,32.9,29.70,SSW,200,12.0,35.0,76,0.01,,---,0.05,VWS V12.07,2013-11-19 08:52:00,
2013-11-19 00:53:00,39.6,32.7,29.70,SSW,193,10.0,35.0,76,0.01,,---,0.05,VWS V12.07,2013-11-19 08:53:00,
2013-11-19 00:56:00,39.6,32.7,29.70,SSW,206,7.0,35.0,76,0.01,,---,0.05,VWS V12.07,2013-11-19 08:56:00,
2013-11-19 00:57:00,39.6,32.7,29.70,South,191,12.0,35.0,76,0.01,,---,0.05,VWS V12.07,2013-11-19 08:57:00,
2013-11-19 00:58:00,39.6,32.7,29.70,SSW,198,10.0,35.0,76,0.01,,---,0.05,VWS V12.07,2013-11-19 08:58:00,
2013-11-19 00:59:00,39.6,33.0,29.70,SSW,213,10.0,35.0,77,0.01,,---,0.05,VWS V12.07,2013-11-19 08:59:00,
2013-11-19 01:00:00,39.8,32.5,29.68,SSW,202,11.0,22.0,75,0.00,,---,0.00,VWS V12.07,2013-11-19 09:00:00,
2013-11-19 01:01:00,39.6,33.0,29.70,SSW,206,14.0,35.0,77,0.01,,---,0.05,VWS V12.07,2013-11-19 09:01:00,
2013-11-19 01:03:00,39.5,32.9,29.70,South,182,12.0,35.0,77,0.01,,---,0.05,VWS V12.07,2013-11-19 09:03:00,
2013-11-19 01:05:00,39.5,32.6,29.70,SSW,198,19.0,35.0,76,0.01,,---,0.05,VWS V12.07,2013-11-19 09:05:00,
2013-11-19 01:06:00,39.6,32.7,29.70,SW,222,12.0,35.0,76,0.01,,---,0.05,VWS V12.07,2013-11-19 09:06:00,
2013-11-19 01:08:00,39.6,32.7,29.70,SSW,192,17.0,35.0,76,0.01,,---,0.05,VWS V12.07,2013-11-19 09:08:00,
2013-11-19 01:09:00,39.5,33.2,29.70,SW,216,7.0,35.0,78,0.01,,---,0.05,VWS V12.07,2013-11-19 09:09:00,
2013-11-19 01:10:00,39.5,33.2,29.70,SSW,203,18.0,35.0,78,0.01,,---,0.05,VWS V12.07,2013-11-19 09:10:00,
2013-11-19 01:11:00,39.6,33.0,29.70,SSW,192,12.0,35.0,77,0.01,,---,0.05,VWS V12.07,2013-11-19 09:11:00,
2013-11-19 01:13:00,39.5,32.9,29.70,South,176,11.0,35.0,77,0.01,,---,0.05,VWS V12.07,2013-11-19 09:13:00,
2013-11-19 01:15:00,39.5,32.9,29.70,SSW,193,13.0,35.0,77,0.01,,---,0.05,VWS V12.07,2013-11-19 09:15:00,
2013-11-19 01:16:00,39.5,32.9,29.70,WSW,246,10.0,35.0,77,0.01,,---,0.05,VWS V12.07,2013-11-19 09:16:00,
2013-11-19 01:17:00,39.5,32.9,29.70,SSW,203,13.0,35.0,77,0.01,,---,0.05,VWS V12.07,2013-11-19 09:17:00,
2013-11-19 01:18:00,39.5,33.2,29.70,South,176,14.0,35.0,78,0.00,,---,0.05,VWS V12.07,2013-11-19 09:18:00,
2013-11-19 01:20:00,39.3,32.4,29.70,SSW,213,14.0,35.0,76,0.01,,---,0.06,VWS V12.07,2013-11-19 09:20:00,
2013-11-19 01:21:00,39.3,32.4,29.70,South,185,17.0,35.0,76,0.01,,---,0.06,VWS V12.07,2013-11-19 09:21:00,
2013-11-19 01:22:00,39.3,33.0,29.70,South,191,10.0,35.0,78,0.01,,---,0.06,VWS V12.07,2013-11-19 09:22:00,
2013-11-19 01:23:00,39.3,32.7,29.70,SSW,196,19.0,35.0,77,0.01,,---,0.06,VWS V12.07,2013-11-19 09:23:00,
2013-11-19 01:26:00,39.3,32.4,29.70,South,179,10.0,35.0,76,0.01,,---,0.06,VWS V12.07,2013-11-19 09:26:00,
2013-11-19 01:27:00,39.3,32.7,29.70,SSW,199,17.0,35.0,77,0.01,,---,0.06,VWS V12.07,2013-11-19 09:27:00,
2013-11-19 01:28:00,39.3,32.7,29.70,South,191,16.0,35.0,77,0.01,,---,0.06,VWS V12.07,2013-11-19 09:28:00,
2013-11-19 01:30:00,40.1,33.2,29.69,SSW,202,13.0,25.0,76,0.00,,---,0.00,VWS V12.07,2013-11-19 09:30:00,
2013-11-19 01:31:00,39.2,32.6,29.70,SSW,193,8.0,35.0,77,0.02,,---,0.07,VWS V12.07,2013-11-19 09:31:00,
2013-11-19 01:32:00,39.2,32.6,29.70,SSW,206,11.0,35.0,77,0.02,,---,0.07,VWS V12.07,2013-11-19 09:32:00,
2013-11-19 01:33:00,39.2,32.6,29.70,SW,227,14.0,35.0,77,0.02,,---,0.07,VWS V12.07,2013-11-19 09:33:00,
2013-11-19 01:34:00,39.2,32.9,29.70,South,188,12.0,35.0,78,0.02,,---,0.07,VWS V12.07,2013-11-19 09:34:00,
2013-11-19 01:36:00,39.1,32.5,29.70,SW,216,12.0,35.0,77,0.02,,---,0.07,VWS V12.07,2013-11-19 09:36:00,
2013-11-19 01:37:00,39.1,32.5,29.70,SSW,199,14.0,35.0,77,0.02,,---,0.07,VWS V12.07,2013-11-19 09:37:00,
2013-11-19 01:38:00,39.1,32.5,29.70,SSW,212,14.0,35.0,77,0.02,,---,0.07,VWS V12.07,2013-11-19 09:38:00,
2013-11-19 01:39:00,39.1,32.5,29.70,SSW,195,21.0,35.0,77,0.02,,---,0.07,VWS V12.07,2013-11-19 09:39:00,
2013-11-19 01:40:00,40.3,32.7,29.69,South,180,11.0,21.0,74,0.00,,---,0.00,VWS V12.07,2013-11-19 09:40:00,
2013-11-19 01:41:00,39.1,32.5,29.70,SSW,195,9.0,35.0,77,0.02,,---,0.07,VWS V12.07,2013-11-19 09:41:00,
2013-11-19 01:43:00,39.1,32.2,29.70,South,179,7.0,35.0,76,0.02,,---,0.07,VWS V12.07,2013-11-19 09:43:00,
2013-11-19 01:44:00,39.1,32.2,29.70,SW,215,10.0,35.0,76,0.02,,---,0.07,VWS V12.07,2013-11-19 09:44:00,
2013-11-19 01:45:00,39.1,32.8,29.70,SW,220,22.0,35.0,78,0.02,,---,0.07,VWS V12.07,2013-11-19 09:45:00,
2013-11-19 01:47:00,38.9,32.6,29.70,SW,219,12.0,35.0,78,0.02,,---,0.07,VWS V12.07,2013-11-19 09:47:00,
2013-11-19 01:48:00,38.9,32.6,29.70,South,181,17.0,35.0,78,0.02,,---,0.07,VWS V12.07,2013-11-19 09:48:00,
2013-11-19 01:49:00,38.9,32.6,29.70,South,191,16.0,35.0,78,0.02,,---,0.07,VWS V12.07,2013-11-19 09:49:00,
2013-11-19 01:50:00,38.9,32.6,29.70,South,184,12.0,35.0,78,0.02,,---,0.07,VWS V12.07,2013-11-19 09:50:00,
2013-11-19 01:54:00,38.8,31.9,29.70,SSW,213,17.0,35.0,76,0.02,,---,0.07,VWS V12.07,2013-11-19 09:54:00,
2013-11-19 01:55:00,38.8,32.2,29.70,WSW,239,12.0,35.0,77,0.02,,---,0.07,VWS V12.07,2013-11-19 09:55:00,
2013-11-19 01:56:00,38.8,32.2,29.70,SSW,206,9.0,35.0,77,0.02,,---,0.07,VWS V12.07,2013-11-19 09:56:00,
2013-11-19 01:59:00,38.8,32.2,29.70,SSW,193,21.0,35.0,77,0.03,,---,0.08,VWS V12.07,2013-11-19 09:59:00,
2013-11-19 02:00:00,38.8,32.2,29.70,South,182,11.0,35.0,77,0.03,,---,0.08,VWS V12.07,2013-11-19 10:00:00,
2013-11-19 02:01:00,38.8,32.2,29.70,South,184,12.0,35.0,77,0.03,,---,0.08,VWS V12.07,2013-11-19 10:01:00,
2013-11-19 02:04:00,38.9,32.0,29.70,South,189,7.0,35.0,76,0.03,,---,0.08,VWS V12.07,2013-11-19 10:04:00,
2013-11-19 02:05:00,38.9,32.6,29.70,SW,215,12.0,35.0,78,0.03,,---,0.08,VWS V12.07,2013-11-19 10:05:00,
2013-11-19 02:06:00,38.9,32.3,29.70,South,178,12.0,35.0,77,0.03,,---,0.08,VWS V12.07,2013-11-19 10:06:00,
2013-11-19 02:07:00,38.9,32.3,29.70,South,186,20.0,35.0,77,0.03,,---,0.08,VWS V12.07,2013-11-19 10:07:00,
2013-11-19 02:09:00,39.1,32.2,29.70,SW,227,16.0,35.0,76,0.03,,---,0.08,VWS V12.07,2013-11-19 10:09:00,
2013-11-19 02:10:00,38.9,32.3,29.70,South,185,7.0,35.0,77,0.03,,---,0.08,VWS V12.07,2013-11-19 10:10:00,
2013-11-19 02:11:00,38.9,32.0,29.70,South,179,10.0,35.0,76,0.03,,---,0.08,VWS V12.07,2013-11-19 10:11:00,
2013-11-19 02:12:00,38.9,32.0,29.70,SSE,168,12.0,35.0,76,0.03,,---,0.08,VWS V12.07,2013-11-19 10:12:00,
2013-11-19 02:15:00,38.9,32.0,29.70,South,186,12.0,35.0,76,0.03,,---,0.08,VWS V12.07,2013-11-19 10:15:00,
2013-11-19 02:16:00,38.9,32.0,29.70,South,178,12.0,35.0,76,0.03,,---,0.08,VWS V12.07,2013-11-19 10:16:00,
2013-11-19 02:17:00,38.8,32.2,29.70,SSW,209,12.0,35.0,77,0.03,,---,0.08,VWS V12.07,2013-11-19 10:17:00,
2013-11-19 02:18:00,38.8,31.9,29.70,SSW,202,17.0,35.0,76,0.03,,---,0.08,VWS V12.07,2013-11-19 10:18:00,
2013-11-19 02:20:00,40.8,32.5,29.68,South,180,13.0,21.0,72,0.00,,---,0.00,VWS V12.07,2013-11-19 10:20:00,
2013-11-19 02:21:00,38.8,31.9,29.70,SSW,192,14.0,35.0,76,0.03,,---,0.08,VWS V12.07,2013-11-19 10:21:00,
2013-11-19 02:22:00,38.6,31.7,29.70,South,191,13.0,35.0,76,0.03,,---,0.08,VWS V12.07,2013-11-19 10:22:00,
2013-11-19 02:23:00,38.5,31.6,29.70,SSW,208,12.0,35.0,76,0.03,,---,0.08,VWS V12.07,2013-11-19 10:23:00,
2013-11-19 02:24:00,38.5,31.6,29.70,South,188,10.0,35.0,76,0.03,,---,0.08,VWS V12.07,2013-11-19 10:24:00,
2013-11-19 02:26:00,38.5,31.9,29.70,SSE,167,13.0,35.0,77,0.03,,---,0.08,VWS V12.07,2013-11-19 10:26:00,
2013-11-19 02:27:00,38.5,31.3,29.70,South,176,14.0,35.0,75,0.03,,---,0.08,VWS V12.07,2013-11-19 10:27:00,
2013-11-19 02:28:00,38.3,31.1,29.70,SSW,199,21.0,35.0,75,0.02,,---,0.08,VWS V12.07,2013-11-19 10:28:00,
2013-11-19 02:29:00,38.3,31.7,29.70,SSW,195,13.0,35.0,77,0.02,,---,0.09,VWS V12.07,2013-11-19 10:29:00,
2013-11-19 02:31:00,38.3,31.7,29.70,SSW,196,16.0,35.0,77,0.03,,---,0.09,VWS V12.07,2013-11-19 10:31:00,
2013-11-19 02:32:00,38.3,31.7,29.70,SSW,199,10.0,35.0,77,0.03,,---,0.09,VWS V12.07,2013-11-19 10:32:00,
2013-11-19 02:33:00,38.2,31.3,29.70,SSE,168,10.0,35.0,76,0.03,,---,0.09,VWS V12.07,2013-11-19 10:33:00,
2013-11-19 02:34:00,38.2,31.3,29.70,SSW,198,12.0,35.0,76,0.03,,---,0.09,VWS V12.07,2013-11-19 10:34:00,
2013-11-19 02:35:00,38.2,31.6,29.70,SW,224,13.0,35.0,77,0.03,,---,0.09,VWS V12.07,2013-11-19 10:35:00,
2013-11-19 02:37:00,38.2,31.3,29.69,SSW,210,13.0,35.0,76,0.03,,---,0.09,VWS V12.07,2013-11-19 10:37:00,
2013-11-19 02:38:00,38.0,31.4,29.69,South,188,11.0,35.0,77,0.02,,---,0.09,VWS V12.07,2013-11-19 10:38:00,
2013-11-19 02:39:00,38.0,31.4,29.69,SSW,202,21.0,35.0,77,0.02,,---,0.09,VWS V12.07,2013-11-19 10:39:00,
2013-11-19 02:40:00,38.2,31.6,29.69,SW,226,12.0,35.0,77,0.02,,---,0.09,VWS V12.07,2013-11-19 10:40:00,
2013-11-19 02:41:00,38.2,31.0,29.69,South,186,17.0,35.0,75,0.02,,---,0.09,VWS V12.07,2013-11-19 10:41:00,
2013-11-19 02:42:00,38.2,31.0,29.69,SSW,203,12.0,35.0,75,0.02,,---,0.09,VWS V12.07,2013-11-19 10:42:00,
2013-11-19 02:43:00,38.0,30.8,29.69,South,182,14.0,35.0,75,0.02,,---,0.09,VWS V12.07,2013-11-19 10:43:00,
2013-11-19 02:44:00,38.0,31.1,29.69,SSW,193,17.0,35.0,76,0.02,,---,0.09,VWS V12.07,2013-11-19 10:44:00,
2013-11-19 02:45:00,37.9,31.0,29.69,South,181,8.0,35.0,76,0.02,,---,0.09,VWS V12.07,2013-11-19 10:45:00,
2013-11-19 02:46:00,37.9,31.0,29.69,South,184,9.0,35.0,76,0.02,,---,0.09,VWS V12.07,2013-11-19 10:46:00,
2013-11-19 02:47:00,37.9,31.7,29.69,SSW,205,11.0,35.0,78,0.02,,---,0.09,VWS V12.07,2013-11-19 10:47:00,
2013-11-19 02:49:00,37.9,31.0,29.69,SSW,209,16.0,35.0,76,0.02,,---,0.09,VWS V12.07,2013-11-19 10:49:00,
2013-11-19 02:50:00,37.9,31.4,29.69,South,191,11.0,35.0,77,0.02,,---,0.09,VWS V12.07,2013-11-19 10:50:00,
2013-11-19 02:52:00,37.9,31.7,29.71,South,188,11.0,35.0,78,0.02,,---,0.09,VWS V12.07,2013-11-19 10:52:00,
2013-11-19 02:53:00,37.9,31.7,29.71,SSW,210,8.0,35.0,78,0.02,,---,0.09,VWS V12.07,2013-11-19 10:53:00,
2013-11-19 02:55:00,37.8,31.2,29.71,South,186,8.0,35.0,77,0.02,,---,0.09,VWS V12.07,2013-11-19 10:55:00,
2013-11-19 02:56:00,37.8,31.6,29.71,South,174,14.0,35.0,78,0.02,,---,0.09,VWS V12.07,2013-11-19 10:56:00,
2013-11-19 02:57:00,37.8,31.6,29.71,SSW,198,10.0,35.0,78,0.02,,---,0.09,VWS V12.07,2013-11-19 10:57:00,
2013-11-19 02:58:00,37.8,31.6,29.71,SSW,200,7.0,35.0,78,0.02,,---,0.09,VWS V12.07,2013-11-19 10:58:00,
2013-11-19 03:00:00,37.8,31.6,29.71,South,176,8.0,35.0,78,0.01,,---,0.09,VWS V12.07,2013-11-19 11:00:00,
2013-11-19 03:03:00,37.8,31.6,29.71,South,174,14.0,35.0,78,0.01,,---,0.09,VWS V12.07,2013-11-19 11:03:00,
2013-11-19 03:04:00,37.8,30.9,29.71,South,179,8.0,35.0,76,0.01,,---,0.09,VWS V12.07,2013-11-19 11:04:00,
2013-11-19 03:05:00,37.9,31.0,29.71,SSW,192,11.0,35.0,76,0.01,,---,0.09,VWS V12.07,2013-11-19 11:05:00,
2013-11-19 03:06:00,37.8,31.2,29.71,SSW,206,7.0,35.0,77,0.01,,---,0.09,VWS V12.07,2013-11-19 11:06:00,
2013-11-19 03:08:00,37.9,31.4,29.71,South,191,7.0,35.0,77,0.01,,---,0.09,VWS V12.07,2013-11-19 11:08:00,
2013-11-19 03:09:00,37.9,31.4,29.71,SSW,192,12.0,35.0,77,0.01,,---,0.09,VWS V12.07,2013-11-19 11:09:00,
2013-11-19 03:10:00,37.9,31.4,29.71,SW,220,7.0,35.0,77,0.01,,---,0.09,VWS V12.07,2013-11-19 11:10:00,
2013-11-19 03:11:00,37.9,31.4,29.71,South,185,12.0,35.0,77,0.01,,---,0.09,VWS V12.07,2013-11-19 11:11:00,
2013-11-19 03:13:00,37.9,31.0,29.71,South,189,6.0,35.0,76,0.01,,---,0.09,VWS V12.07,2013-11-19 11:13:00,
2013-11-19 03:14:00,37.9,31.7,29.71,South,176,7.0,35.0,78,0.01,,---,0.09,VWS V12.07,2013-11-19 11:14:00,
2013-11-19 03:15:00,37.9,31.0,29.71,SSW,203,5.0,35.0,76,0.01,,---,0.09,VWS V12.07,2013-11-19 11:15:00,
2013-11-19 03:16:00,37.9,31.0,29.71,South,179,12.0,35.0,76,0.01,,---,0.09,VWS V12.07,2013-11-19 11:16:00,
2013-11-19 03:20:00,40.8,32.8,29.70,South,180,14.0,26.0,73,0.00,,---,0.00,VWS V12.07,2013-11-19 11:20:00,
2013-11-19 03:30:00,40.9,32.9,29.71,SSW,202,14.0,26.0,73,0.00,,---,0.00,VWS V12.07,2013-11-19 11:30:00,
2013-11-19 03:40:00,41.5,33.5,29.71,SSW,202,15.0,26.0,73,0.00,,---,0.00,VWS V12.07,2013-11-19 11:40:00,
2013-11-19 03:50:00,41.5,33.8,29.70,SSW,202,14.0,29.0,74,0.01,,---,0.01,VWS V12.07,2013-11-19 11:50:00,
2013-11-19 04:00:00,41.8,33.5,29.70,SSW,202,15.0,30.0,72,0.01,,---,0.01,VWS V12.07,2013-11-19 12:00:00,
2013-11-19 04:10:00,41.8,33.5,29.70,SSW,202,15.0,26.0,72,0.01,,---,0.01,VWS V12.07,2013-11-19 12:10:00,
2013-11-19 04:20:00,41.8,33.5,29.73,SSW,202,13.0,26.0,72,0.01,,---,0.01,VWS V12.07,2013-11-19 12:20:00,
2013-11-19 04:30:00,41.9,33.9,29.73,SSW,202,13.0,22.0,73,0.01,,---,0.01,VWS V12.07,2013-11-19 12:30:00,
2013-11-19 04:40:00,41.6,33.6,29.73,South,180,12.0,21.0,73,0.01,,---,0.01,VWS V12.07,2013-11-19 12:40:00,
2013-11-19 04:50:00,41.5,33.8,29.73,SSW,202,14.0,31.0,74,0.01,,---,0.01,VWS V12.07,2013-11-19 12:50:00,
2013-11-19 05:00:00,41.5,33.5,29.73,SSW,202,11.0,18.0,73,0.00,,---,0.01,VWS V12.07,2013-11-19 13:00:00,
2013-11-19 05:10:00,41.9,33.9,29.73,South,180,12.0,21.0,73,0.00,,---,0.01,VWS V12.07,2013-11-19 13:10:00,
2013-11-19 05:20:00,42.1,34.4,29.72,South,180,12.0,26.0,74,0.00,,---,0.01,VWS V12.07,2013-11-19 13:20:00,
2013-11-19 05:30:00,42.1,34.4,29.72,South,180,11.0,19.0,74,0.01,,---,0.02,VWS V12.07,2013-11-19 13:30:00,
2013-11-19 05:40:00,42.1,34.8,29.72,South,180,11.0,25.0,75,0.01,,---,0.02,VWS V12.07,2013-11-19 13:40:00,
2013-11-19 05:50:00,42.3,34.6,29.72,South,180,12.0,22.0,74,0.01,,---,0.02,VWS V12.07,2013-11-19 13:50:00,
2013-11-19 06:10:00,42.8,35.1,29.72,SSW,202,11.0,21.0,74,0.01,,---,0.02,VWS V12.07,2013-11-19 14:10:00,
2013-11-19 06:20:00,43.1,35.4,29.72,South,180,10.0,18.0,74,0.01,,---,0.02,VWS V12.07,2013-11-19 14:20:00,
2013-11-19 06:30:00,43.1,35.7,29.72,South,180,8.0,20.0,75,0.02,,---,0.03,VWS V12.07,2013-11-19 14:30:00,
2013-11-19 06:40:00,43.2,36.2,29.72,South,180,8.0,16.0,76,0.02,,---,0.04,VWS V12.07,2013-11-19 14:40:00,
2013-11-19 06:50:00,43.3,36.6,29.72,South,180,10.0,20.0,77,0.02,,---,0.04,VWS V12.07,2013-11-19 14:50:00,
2013-11-19 07:00:00,43.5,37.1,29.70,SSW,202,7.0,16.0,78,0.02,,---,0.04,VWS V12.07,2013-11-19 15:00:00,
2013-11-19 07:30:00,43.6,37.5,29.71,South,180,8.0,16.0,79,0.06,,---,0.08,VWS V12.07,2013-11-19 15:30:00,
2013-11-19 07:40:00,43.6,37.2,29.71,South,180,9.0,18.0,78,0.05,,---,0.08,VWS V12.07,2013-11-19 15:40:00,
2013-11-19 07:50:00,43.5,37.4,29.71,South,180,7.0,17.0,79,0.05,,---,0.09,VWS V12.07,2013-11-19 15:50:00,
2013-11-19 08:00:00,43.5,37.4,29.70,SSW,202,8.0,14.0,79,0.06,,---,0.10,VWS V12.07,2013-11-19 16:00:00,
2013-11-19 08:10:00,43.6,37.2,29.70,South,180,10.0,17.0,78,0.06,,---,0.10,VWS V12.07,2013-11-19 16:10:00,
2013-11-19 08:20:00,43.3,36.6,29.71,South,180,9.0,20.0,77,0.05,,---,0.10,VWS V12.07,2013-11-19 16:20:00,
2013-11-19 08:30:00,43.3,36.9,29.71,South,180,8.0,17.0,78,0.04,,---,0.10,VWS V12.07,2013-11-19 16:30:00,
2013-11-19 08:40:00,43.3,36.6,29.71,South,180,7.0,13.0,77,0.03,,---,0.11,VWS V12.07,2013-11-19 16:40:00,
2013-11-19 08:50:00,43.8,36.7,29.70,SSW,202,10.0,18.0,76,0.03,,---,0.11,VWS V12.07,2013-11-19 16:50:00,
2013-11-19 09:00:00,43.9,36.8,29.71,South,180,8.0,14.0,76,0.02,,---,0.11,VWS V12.07,2013-11-19 17:00:00,
2013-11-19 09:30:00,43.8,35.7,29.71,South,180,7.0,16.0,73,0.01,,---,0.11,VWS V12.07,2013-11-19 17:30:00,
2013-11-19 09:40:00,44.1,37.0,29.71,South,180,8.0,17.0,76,0.01,,---,0.11,VWS V12.07,2013-11-19 17:40:00,
2013-11-19 09:50:00,44.1,36.7,29.71,South,180,8.0,18.0,75,0.00,,---,0.11,VWS V12.07,2013-11-19 17:50:00,
2013-11-19 10:00:00,44.1,37.4,29.70,SSW,202,5.0,13.0,77,0.01,,---,0.12,VWS V12.07,2013-11-19 18:00:00,
2013-11-19 10:10:00,44.3,36.5,29.70,South,180,6.0,11.0,74,0.01,,---,0.12,VWS V12.07,2013-11-19 18:10:00,
2013-11-19 10:20:00,44.2,35.8,29.70,South,180,5.0,8.0,72,0.01,,---,0.12,VWS V12.07,2013-11-19 18:20:00,
2013-11-19 10:40:00,44.2,36.5,29.70,South,180,5.0,12.0,74,0.01,,---,0.12,VWS V12.07,2013-11-19 18:40:00,
2013-11-19 10:50:00,44.1,37.0,29.70,South,180,6.0,11.0,76,0.01,,---,0.12,VWS V12.07,2013-11-19 18:50:00,
2013-11-19 11:00:00,43.6,36.9,29.70,South,180,5.0,10.0,77,0.01,,---,0.12,VWS V12.07,2013-11-19 19:00:00,
2013-11-19 11:10:00,43.3,36.6,29.70,SSW,193,5.0,11.0,77,0.01,,---,0.13,VWS V12.07,2013-11-19 19:10:00,
2013-11-19 11:20:00,43.2,36.5,29.70,South,191,2.0,10.0,77,0.01,,---,0.13,VWS V12.07,2013-11-19 19:20:00,
2013-11-19 11:30:00,43.1,36.1,29.70,South,179,7.0,14.0,76,0.01,,---,0.13,VWS V12.07,2013-11-19 19:30:00,
2013-11-19 11:40:00,42.9,35.9,29.70,SSW,195,5.0,13.0,76,0.01,,---,0.13,VWS V12.07,2013-11-19 19:40:00,
2013-11-19 11:50:00,42.8,35.8,29.71,South,191,7.0,12.0,76,0.02,,---,0.14,VWS V12.07,2013-11-19 19:50:00,
2013-11-19 12:00:00,42.3,35.6,29.72,SSW,192,7.0,10.0,77,0.03,,---,0.15,VWS V12.07,2013-11-19 20:00:00,
2013-11-19 12:10:00,42.1,34.8,29.72,SSW,210,7.0,12.0,75,0.03,,---,0.15,VWS V12.07,2013-11-19 20:10:00,
2013-11-19 12:20:00,41.9,34.9,29.71,South,186,7.0,18.0,76,0.02,,---,0.15,VWS V12.07,2013-11-19 20:20:00,
2013-11-19 12:30:00,41.6,34.3,29.70,SSW,195,11.0,19.0,75,0.02,,---,0.15,VWS V12.07,2013-11-19 20:30:00,
2013-11-19 12:40:00,41.6,34.6,29.70,SSE,164,14.0,18.0,76,0.02,,---,0.15,VWS V12.07,2013-11-19 20:40:00,
2013-11-19 12:50:00,41.6,34.3,29.70,SSW,195,7.0,19.0,75,0.02,,---,0.15,VWS V12.07,2013-11-19 20:50:00,
2013-11-19 13:00:00,41.6,34.6,29.71,South,189,11.0,17.0,76,0.01,,---,0.15,VWS V12.07,2013-11-19 21:00:00,
2013-11-19 13:10:00,41.6,34.3,29.71,South,181,7.0,13.0,75,0.00,,---,0.15,VWS V12.07,2013-11-19 21:10:00,
2013-11-19 13:20:00,41.6,34.3,29.71,South,171,8.0,19.0,75,0.00,,---,0.15,VWS V12.07,2013-11-19 21:20:00,
2013-11-19 13:30:00,41.5,34.8,29.70,SSW,192,7.0,14.0,77,0.01,,---,0.16,VWS V12.07,2013-11-19 21:30:00,
2013-11-19 13:50:00,41.3,34.7,29.70,SSW,196,13.0,14.0,77,0.01,,---,0.16,VWS V12.07,2013-11-19 21:50:00,
2013-11-19 14:00:00,41.3,34.3,29.70,SSW,208,8.0,17.0,76,0.01,,---,0.16,VWS V12.07,2013-11-19 22:00:00,
2013-11-19 14:10:00,41.2,34.2,29.70,South,188,6.0,16.0,76,0.01,,---,0.16,VWS V12.07,2013-11-19 22:10:00,
2013-11-19 14:20:00,41.2,34.2,29.70,South,189,6.0,16.0,76,0.01,,---,0.16,VWS V12.07,2013-11-19 22:20:00,
2013-11-19 14:30:00,41.3,34.3,29.70,South,179,8.0,14.0,76,0.01,,---,0.16,VWS V12.07,2013-11-19 22:30:00,
2013-11-19 14:40:00,41.2,34.5,29.70,SSE,165,7.0,13.0,77,0.00,,---,0.16,VWS V12.07,2013-11-19 22:40:00,
2013-11-19 14:50:00,41.2,34.5,29.70,South,181,6.0,12.0,77,0.00,,---,0.16,VWS V12.07,2013-11-19 22:50:00,
2013-11-19 15:00:00,41.1,34.5,29.71,South,191,2.0,12.0,77,0.00,,---,0.16,VWS V12.07,2013-11-19 23:00:00,
2013-11-19 15:10:00,40.9,33.9,29.71,South,188,6.0,11.0,76,0.00,,---,0.16,VWS V12.07,2013-11-19 23:10:00,
2013-11-19 15:20:00,40.9,33.6,29.71,South,184,8.0,14.0,75,0.00,,---,0.16,VWS V12.07,2013-11-19 23:20:00,
2013-11-19 15:30:00,40.8,34.2,29.70,South,186,8.0,17.0,77,0.00,,---,0.16,VWS V12.07,2013-11-19 23:30:00,
2013-11-19 15:38:00,38.9,32.3,29.69,South,180,6.0,18.0,77,0.00,,---,0.00,VWS V12.07,2013-11-19 23:38:00,
2013-11-19 15:39:00,43.5,37.1,29.70,SSW,202,7.0,32.0,78,0.02,,---,0.04,VWS V12.07,2013-11-19 23:39:00,
2013-11-19 15:40:00,43.6,36.9,29.70,South,189,5.0,32.0,77,0.00,,---,0.12,VWS V12.07,2013-11-19 23:40:00,
2013-11-19 15:44:00,43.5,36.8,29.70,SSW,193,5.0,32.0,77,0.00,,---,0.12,VWS V12.07,2013-11-19 23:44:00,
2013-11-19 15:45:00,43.3,36.6,29.70,South,182,6.0,32.0,77,0.00,,---,0.12,VWS V12.07,2013-11-19 23:45:00,
2013-11-19 15:49:00,43.3,36.3,29.70,SSE,151,3.0,32.0,76,0.01,,---,0.13,VWS V12.07,2013-11-19 23:49:00,
2013-11-19 15:50:00,43.2,36.5,29.70,South,179,5.0,32.0,77,0.01,,---,0.13,VWS V12.07,2013-11-19 23:50:00,
2013-11-19 15:54:00,43.2,36.5,29.70,SSW,193,3.0,32.0,77,0.01,,---,0.13,VWS V12.07,2013-11-19 23:54:00,
2013-11-19 15:55:00,43.2,36.2,29.70,SSW,193,3.0,32.0,76,0.01,,---,0.13,VWS V12.07,2013-11-19 23:55:00,
2013-11-19 15:57:00,43.2,36.5,29.70,South,191,2.0,32.0,77,0.01,,---,0.13,VWS V12.07,2013-11-19 23:57:00,
2013-11-19 15:59:00,43.1,36.4,29.70,SSW,193,6.0,32.0,77,0.01,,---,0.13,VWS V12.07,2013-11-19 23:59:00,
2013-11-19 16:00:00,43.1,36.1,29.70,South,182,6.0,32.0,76,0.01,,---,0.13,VWS V12.07,2013-11-20 00:00:00,
2013-11-19 16:01:00,43.1,36.1,29.70,South,189,7.0,32.0,76,0.01,,---,0.13,VWS V12.07,2013-11-20 00:01:00,
2013-11-19 16:03:00,43.1,36.1,29.70,SSW,200,5.0,32.0,76,0.01,,---,0.13,VWS V12.07,2013-11-20 00:03:00,
2013-11-19 16:04:00,43.1,36.1,29.70,South,188,7.0,32.0,76,0.01,,---,0.13,VWS V12.07,2013-11-20 00:04:00,
2013-11-19 16:05:00,43.1,36.1,29.70,South,186,7.0,32.0,76,0.01,,---,0.13,VWS V12.07,2013-11-20 00:05:00,
2013-11-19 16:07:00,43.1,36.1,29.70,South,181,7.0,32.0,76,0.01,,---,0.13,VWS V12.07,2013-11-20 00:07:00,
2013-11-19 16:09:00,42.9,35.9,29.70,South,171,10.0,32.0,76,0.01,,---,0.13,VWS V12.07,2013-11-20 00:09:00,
2013-11-19 16:10:00,42.9,35.9,29.70,South,179,5.0,32.0,76,0.01,,---,0.13,VWS V12.07,2013-11-20 00:10:00,
2013-11-19 16:13:00,42.9,36.2,29.70,SSW,200,7.0,32.0,77,0.01,,---,0.13,VWS V12.07,2013-11-20 00:13:00,
2013-11-19 16:14:00,42.9,36.2,29.70,South,189,5.0,32.0,77,0.01,,---,0.13,VWS V12.07,2013-11-20 00:14:00,
2013-11-19 16:15:00,42.9,35.9,29.70,SSW,202,6.0,32.0,76,0.01,,---,0.13,VWS V12.07,2013-11-20 00:15:00,
2013-11-19 16:16:00,42.9,35.9,29.70,SSW,200,5.0,32.0,76,0.01,,---,0.13,VWS V12.07,2013-11-20 00:16:00,
2013-11-19 16:19:00,42.9,35.9,29.70,SSW,193,6.0,32.0,76,0.01,,---,0.13,VWS V12.07,2013-11-20 00:19:00,
2013-11-19 16:20:00,42.9,35.9,29.70,SSW,203,7.0,32.0,76,0.01,,---,0.13,VWS V12.07,2013-11-20 00:20:00,
2013-11-19 16:21:00,42.9,35.2,29.70,SSW,198,6.0,32.0,74,0.01,,---,0.13,VWS V12.07,2013-11-20 00:21:00,
2013-11-19 16:24:00,42.8,35.1,29.71,South,185,7.0,32.0,74,0.02,,---,0.14,VWS V12.07,2013-11-20 00:24:00,
2013-11-19 16:25:00,42.8,35.1,29.71,SSW,198,12.0,32.0,74,0.02,,---,0.14,VWS V12.07,2013-11-20 00:25:00,
2013-11-19 16:26:00,42.8,35.4,29.71,South,182,11.0,32.0,75,0.02,,---,0.14,VWS V12.07,2013-11-20 00:26:00,
2013-11-19 16:27:00,42.8,35.8,29.71,South,189,4.0,32.0,76,0.02,,---,0.14,VWS V12.07,2013-11-20 00:27:00,
2013-11-19 16:30:00,42.6,35.9,29.71,SSW,199,6.0,32.0,77,0.02,,---,0.14,VWS V12.07,2013-11-20 00:30:00,
2013-11-19 16:31:00,42.6,35.9,29.71,SSW,199,5.0,32.0,77,0.02,,---,0.14,VWS V12.07,2013-11-20 00:31:00,
2013-11-19 16:32:00,42.5,35.8,29.71,South,171,7.0,32.0,77,0.02,,---,0.14,VWS V12.07,2013-11-20 00:32:00,
2013-11-19 16:35:00,42.5,35.8,29.71,South,186,5.0,32.0,77,0.02,,---,0.14,VWS V12.07,2013-11-20 00:35:00,
2013-11-19 16:36:00,42.3,35.3,29.71,South,186,2.0,32.0,76,0.02,,---,0.14,VWS V12.07,2013-11-20 00:36:00,
2013-11-19 16:37:00,42.3,35.6,29.72,SSW,208,5.0,32.0,77,0.02,,---,0.15,VWS V12.07,2013-11-20 00:37:00,
2013-11-19 16:40:00,40.2,33.6,29.72,SSW,199,10.0,13.0,77,0.00,,---,0.16,VWS V12.07,2013-11-20 00:40:00,
2013-11-19 16:41:00,42.2,35.5,29.72,South,188,9.0,32.0,77,0.03,,---,0.15,VWS V12.07,2013-11-20 00:41:00,
2013-11-19 16:42:00,42.2,35.2,29.72,SSW,206,2.0,32.0,76,0.03,,---,0.15,VWS V12.07,2013-11-20 00:42:00,
2013-11-19 16:46:00,42.1,34.8,29.72,SW,215,5.0,32.0,75,0.03,,---,0.15,VWS V12.07,2013-11-20 00:46:00,
2013-11-19 16:47:00,42.1,34.8,29.72,SSW,210,7.0,32.0,75,0.03,,---,0.15,VWS V12.07,2013-11-20 00:47:00,
2013-11-19 16:48:00,42.1,35.1,29.72,South,182,6.0,32.0,76,0.03,,---,0.15,VWS V12.07,2013-11-20 00:48:00,
2013-11-19 16:50:00,40.2,33.2,29.72,SW,215,7.0,12.0,76,0.00,,---,0.16,VWS V12.07,2013-11-20 00:50:00,
2013-11-19 16:51:00,41.9,34.9,29.71,South,186,5.0,32.0,76,0.02,,---,0.15,VWS V12.07,2013-11-20 00:51:00,
2013-11-19 16:52:00,41.9,34.9,29.71,South,185,7.0,32.0,76,0.02,,---,0.15,VWS V12.07,2013-11-20 00:52:00,
2013-11-19 16:53:00,41.9,34.9,29.71,SSW,192,12.0,32.0,76,0.02,,---,0.15,VWS V12.07,2013-11-20 00:53:00,
2013-11-19 16:55:00,41.9,34.9,29.71,South,184,8.0,32.0,76,0.02,,---,0.15,VWS V12.07,2013-11-20 00:55:00,
2013-11-19 16:56:00,41.9,34.9,29.71,SSW,196,10.0,32.0,76,0.02,,---,0.15,VWS V12.07,2013-11-20 00:56:00,
2013-11-19 16:57:00,41.9,34.9,29.71,South,189,11.0,32.0,76,0.02,,---,0.15,VWS V12.07,2013-11-20 00:57:00,
2013-11-19 16:58:00,41.8,34.5,29.71,SSW,209,8.0,32.0,75,0.02,,---,0.15,VWS V12.07,2013-11-20 00:58:00,
2013-11-19 17:00:00,41.8,34.5,29.71,SSW,202,17.0,32.0,75,0.02,,---,0.15,VWS V12.07,2013-11-20 01:00:00,
2013-11-19 17:02:00,41.8,34.5,29.71,SSW,200,10.0,32.0,75,0.02,,---,0.15,VWS V12.07,2013-11-20 01:02:00,
2013-11-19 17:03:00,41.6,34.6,29.71,SSW,199,7.0,32.0,76,0.02,,---,0.15,VWS V12.07,2013-11-20 01:03:00,
2013-11-19 17:06:00,41.6,34.3,29.71,SSW,193,5.0,32.0,75,0.02,,---,0.15,VWS V12.07,2013-11-20 01:06:00,
2013-11-19 17:07:00,41.6,34.3,29.70,SSW,212,11.0,32.0,75,0.02,,---,0.15,VWS V12.07,2013-11-20 01:07:00,
2013-11-19 17:08:00,41.6,34.3,29.70,SSW,193,12.0,32.0,75,0.02,,---,0.15,VWS V12.07,2013-11-20 01:08:00,
2013-11-19 17:11:00,41.5,34.8,29.70,North,0,11.0,32.0,77,0.02,,---,0.15,VWS V12.07,2013-11-20 01:11:00,
2013-11-19 17:13:00,41.5,34.5,29.70,SSW,193,11.0,32.0,76,0.02,,---,0.15,VWS V12.07,2013-11-20 01:13:00,
2013-11-19 17:17:00,41.6,34.6,29.70,South,186,8.0,32.0,76,0.02,,---,0.15,VWS V12.07,2013-11-20 01:17:00,
2013-11-19 17:18:00,41.6,34.3,29.70,SSW,193,14.0,32.0,75,0.02,,---,0.15,VWS V12.07,2013-11-20 01:18:00,
2013-11-19 17:19:00,41.6,34.3,29.70,South,172,7.0,32.0,75,0.02,,---,0.15,VWS V12.07,2013-11-20 01:19:00,
2013-11-19 17:20:00,40.1,33.8,29.72,South,191,5.0,10.0,78,0.00,,---,0.16,VWS V12.07,2013-11-20 01:20:00,
2013-11-19 17:23:00,41.6,34.3,29.70,SSW,195,12.0,32.0,75,0.02,,---,0.15,VWS V12.07,2013-11-20 01:23:00,
2013-11-19 17:24:00,41.6,34.6,29.70,South,191,11.0,32.0,76,0.02,,---,0.15,VWS V12.07,2013-11-20 01:24:00,
2013-11-19 17:28:00,41.6,34.3,29.70,South,189,10.0,32.0,75,0.01,,---,0.15,VWS V12.07,2013-11-20 01:28:00,
2013-11-19 17:29:00,41.6,34.6,29.70,SSE,158,8.0,32.0,76,0.01,,---,0.15,VWS V12.07,2013-11-20 01:29:00,
2013-11-19 17:30:00,39.9,33.3,29.72,SSW,196,5.0,10.0,77,0.00,,---,0.16,VWS V12.07,2013-11-20 01:30:00,
2013-11-19 17:34:00,41.6,33.9,29.70,South,181,6.0,32.0,74,0.01,,---,0.15,VWS V12.07,2013-11-20 01:34:00,
2013-11-19 17:35:00,41.5,33.8,29.70,South,182,7.0,32.0,74,0.01,,---,0.15,VWS V12.07,2013-11-20 01:35:00,
2013-11-19 17:39:00,41.6,34.6,29.71,SSW,202,7.0,32.0,76,0.00,,---,0.15,VWS V12.07,2013-11-20 01:39:00,
2013-11-19 17:40:00,41.6,34.6,29.71,SW,220,10.0,32.0,76,0.00,,---,0.15,VWS V12.07,2013-11-20 01:40:00,
2013-11-19 17:44:00,41.6,34.3,29.71,South,186,8.0,32.0,75,0.00,,---,0.15,VWS V12.07,2013-11-20 01:44:00,
2013-11-19 17:45:00,41.6,34.3,29.71,SSW,200,8.0,32.0,75,0.00,,---,0.15,VWS V12.07,2013-11-20 01:45:00,
2013-11-19 17:46:00,41.6,34.3,29.71,South,186,7.0,32.0,75,0.00,,---,0.15,VWS V12.07,2013-11-20 01:46:00,
2013-11-19 17:47:00,41.6,34.3,29.71,South,181,7.0,32.0,75,0.00,,---,0.15,VWS V12.07,2013-11-20 01:47:00,
2013-11-19 17:50:00,41.6,34.3,29.71,South,179,8.0,32.0,75,0.00,,---,0.15,VWS V12.07,2013-11-20 01:50:00,
2013-11-19 17:51:00,41.6,33.9,29.71,South,184,7.0,32.0,74,0.00,,---,0.15,VWS V12.07,2013-11-20 01:51:00,
2013-11-19 17:52:00,41.6,33.9,29.71,SSW,202,7.0,32.0,74,0.00,,---,0.15,VWS V12.07,2013-11-20 01:52:00,
2013-11-19 17:53:00,41.6,34.6,29.71,South,172,5.0,32.0,76,0.00,,---,0.15,VWS V12.07,2013-11-20 01:53:00,
2013-11-19 17:55:00,41.6,34.3,29.71,SSW,193,10.0,32.0,75,0.00,,---,0.15,VWS V12.07,2013-11-20 01:55:00,
2013-11-19 17:56:00,41.6,34.3,29.71,SSW,195,10.0,32.0,75,0.00,,---,0.15,VWS V12.07,2013-11-20 01:56:00,
2013-11-19 17:57:00,41.6,34.3,29.71,SSW,199,11.0,32.0,75,0.00,,---,0.15,VWS V12.07,2013-11-20 01:57:00,
2013-11-19 17:58:00,41.6,34.3,29.71,South,182,10.0,32.0,75,0.00,,---,0.15,VWS V12.07,2013-11-20 01:58:00,
2013-11-19 17:59:00,41.5,34.5,29.71,South,181,8.0,32.0,76,0.00,,---,0.15,VWS V12.07,2013-11-20 01:59:00,
2013-11-19 18:00:00,39.6,33.3,29.73,SSW,200,6.0,10.0,78,0.00,,---,0.16,VWS V12.07,2013-11-20 02:00:00,
2013-11-19 18:01:00,41.5,34.8,29.71,South,191,12.0,32.0,77,0.00,,---,0.15,VWS V12.07,2013-11-20 02:01:00,
2013-11-19 18:02:00,41.5,34.8,29.71,South,171,10.0,32.0,77,0.01,,---,0.16,VWS V12.07,2013-11-20 02:02:00,
2013-11-19 18:03:00,41.5,34.8,29.71,South,185,7.0,32.0,77,0.01,,---,0.16,VWS V12.07,2013-11-20 02:03:00,
2013-11-19 18:04:00,41.6,34.9,29.71,SSE,160,7.0,32.0,77,0.01,,---,0.16,VWS V12.07,2013-11-20 02:04:00,
2013-11-19 18:06:00,41.5,34.8,29.71,SSW,200,7.0,32.0,77,0.01,,---,0.16,VWS V12.07,2013-11-20 02:06:00,
2013-11-19 18:07:00,41.5,34.8,29.70,SSW,192,7.0,32.0,77,0.01,,---,0.16,VWS V12.07,2013-11-20 02:07:00,
2013-11-19 18:08:00,41.5,34.8,29.70,South,188,7.0,32.0,77,0.01,,---,0.16,VWS V12.07,2013-11-20 02:08:00,
2013-11-19 18:09:00,41.5,34.8,29.70,South,185,8.0,32.0,77,0.01,,---,0.16,VWS V12.07,2013-11-20 02:09:00,
2013-11-19 18:10:00,39.6,33.0,29.73,South,191,1.0,8.0,77,0.00,,---,0.16,VWS V12.07,2013-11-20 02:10:00,
2013-11-19 18:11:00,41.5,34.8,29.70,SSW,196,12.0,32.0,77,0.01,,---,0.16,VWS V12.07,2013-11-20 02:11:00,
2013-11-19 18:12:00,41.5,34.8,29.70,South,169,7.0,32.0,77,0.01,,---,0.16,VWS V12.07,2013-11-20 02:12:00,
2013-11-19 18:14:00,41.5,34.2,29.70,South,182,7.0,32.0,75,0.01,,---,0.16,VWS V12.07,2013-11-20 02:14:00,
2013-11-19 18:15:00,41.3,34.0,29.70,SSW,209,8.0,32.0,75,0.01,,---,0.16,VWS V12.07,2013-11-20 02:15:00,
2013-11-19 18:16:00,41.3,34.3,29.70,SSW,192,9.0,32.0,76,0.01,,---,0.16,VWS V12.07,2013-11-20 02:16:00,
2013-11-19 18:17:00,41.3,34.3,29.70,SSW,199,12.0,32.0,76,0.01,,---,0.16,VWS V12.07,2013-11-20 02:17:00,
2013-11-19 18:19:00,41.3,34.3,29.70,South,189,9.0,32.0,76,0.01,,---,0.16,VWS V12.07,2013-11-20 02:19:00,
2013-11-19 18:20:00,41.3,34.3,29.70,South,184,10.0,32.0,76,0.01,,---,0.16,VWS V12.07,2013-11-20 02:20:00,
2013-11-19 18:21:00,41.3,34.3,29.70,South,182,7.0,32.0,76,0.01,,---,0.16,VWS V12.07,2013-11-20 02:21:00,
2013-11-19 18:22:00,41.3,34.3,29.70,SSW,208,7.0,32.0,76,0.01,,---,0.16,VWS V12.07,2013-11-20 02:22:00,
2013-11-19 18:23:00,41.3,34.3,29.70,SSW,199,11.0,32.0,76,0.01,,---,0.16,VWS V12.07,2013-11-20 02:23:00,
2013-11-19 18:25:00,41.5,34.5,29.70,South,182,6.0,32.0,76,0.01,,---,0.16,VWS V12.07,2013-11-20 02:25:00,
2013-11-19 18:26:00,41.3,34.3,29.70,SSW,193,7.0,32.0,76,0.01,,---,0.16,VWS V12.07,2013-11-20 02:26:00,
2013-11-19 18:27:00,41.3,34.7,29.70,SSW,196,13.0,32.0,77,0.01,,---,0.16,VWS V12.07,2013-11-20 02:27:00,
2013-11-19 18:28:00,41.3,34.0,29.70,SSW,198,7.0,32.0,75,0.01,,---,0.16,VWS V12.07,2013-11-20 02:28:00,
2013-11-19 18:30:00,41.3,34.7,29.70,South,186,7.0,32.0,77,0.01,,---,0.16,VWS V12.07,2013-11-20 02:30:00,
2013-11-19 18:31:00,41.3,34.7,29.70,South,186,9.0,32.0,77,0.01,,---,0.16,VWS V12.07,2013-11-20 02:31:00,
2013-11-19 18:33:00,41.3,34.3,29.70,South,189,7.0,32.0,76,0.01,,---,0.16,VWS V12.07,2013-11-20 02:33:00,
2013-11-19 18:34:00,41.3,34.3,29.70,South,189,7.0,32.0,76,0.01,,---,0.16,VWS V12.07,2013-11-20 02:34:00,
2013-11-19 18:36:00,41.3,34.0,29.70,South,186,10.0,32.0,75,0.01,,---,0.16,VWS V12.07,2013-11-20 02:36:00,
2013-11-19 18:38:00,41.3,34.3,29.70,SSW,199,8.0,32.0,76,0.01,,---,0.16,VWS V12.07,2013-11-20 02:38:00,
2013-11-19 18:39:00,41.3,34.3,29.70,SSW,199,8.0,32.0,76,0.01,,---,0.16,VWS V12.07,2013-11-20 02:39:00,
2013-11-19 18:40:00,41.3,34.3,29.70,SSW,202,5.0,32.0,76,0.01,,---,0.16,VWS V12.07,2013-11-20 02:40:00,
2013-11-19 18:42:00,41.2,34.2,29.70,South,178,7.0,32.0,76,0.01,,---,0.16,VWS V12.07,2013-11-20 02:42:00,
2013-11-19 18:43:00,41.2,33.9,29.70,South,175,8.0,32.0,75,0.01,,---,0.16,VWS V12.07,2013-11-20 02:43:00,
2013-11-19 18:44:00,41.2,33.9,29.70,SSW,198,7.0,32.0,75,0.01,,---,0.16,VWS V12.07,2013-11-20 02:44:00,
2013-11-19 18:45:00,41.2,34.2,29.70,South,191,7.0,32.0,76,0.01,,---,0.16,VWS V12.07,2013-11-20 02:45:00,
2013-11-19 18:49:00,41.2,34.2,29.70,SSW,193,10.0,32.0,76,0.01,,---,0.16,VWS V12.07,2013-11-20 02:49:00,
2013-11-19 18:50:00,41.2,34.5,29.70,South,179,7.0,32.0,77,0.01,,---,0.16,VWS V12.07,2013-11-20 02:50:00,
2013-11-19 18:51:00,41.2,34.5,29.70,South,179,7.0,32.0,77,0.01,,---,0.16,VWS V12.07,2013-11-20 02:51:00,
2013-11-19 18:54:00,41.3,34.0,29.70,South,188,6.0,32.0,75,0.01,,---,0.16,VWS V12.07,2013-11-20 02:54:00,
2013-11-19 18:55:00,41.2,33.9,29.70,SSW,206,7.0,32.0,75,0.01,,---,0.16,VWS V12.07,2013-11-20 02:55:00,
2013-11-19 18:56:00,41.2,34.2,29.70,South,181,11.0,32.0,76,0.01,,---,0.16,VWS V12.07,2013-11-20 02:56:00,
2013-11-19 18:59:00,41.3,34.3,29.70,SSW,192,7.0,32.0,76,0.01,,---,0.16,VWS V12.07,2013-11-20 02:59:00,
2013-11-19 19:00:00,41.3,34.3,29.70,South,178,5.0,32.0,76,0.01,,---,0.16,VWS V12.07,2013-11-20 03:00:00,
2013-11-19 19:01:00,41.2,34.2,29.70,SW,224,11.0,32.0,76,0.01,,---,0.16,VWS V12.07,2013-11-20 03:01:00,
2013-11-19 19:02:00,41.2,34.2,29.70,South,178,12.0,32.0,76,0.01,,---,0.16,VWS V12.07,2013-11-20 03:02:00,
2013-11-19 19:05:00,41.3,34.3,29.70,South,176,8.0,32.0,76,0.01,,---,0.16,VWS V12.07,2013-11-20 03:05:00,
2013-11-19 19:06:00,41.3,34.3,29.70,South,182,9.0,32.0,76,0.01,,---,0.16,VWS V12.07,2013-11-20 03:06:00,
2013-11-19 19:07:00,41.3,34.3,29.70,South,178,6.0,32.0,76,0.01,,---,0.16,VWS V12.07,2013-11-20 03:07:00,
2013-11-19 19:10:00,41.3,34.3,29.70,South,188,10.0,32.0,76,0.00,,---,0.16,VWS V12.07,2013-11-20 03:10:00,
2013-11-19 19:11:00,41.3,34.3,29.70,South,188,10.0,32.0,76,0.00,,---,0.16,VWS V12.07,2013-11-20 03:11:00,
2013-11-19 19:12:00,41.3,34.3,29.70,SSW,193,4.0,32.0,76,0.00,,---,0.16,VWS V12.07,2013-11-20 03:12:00,
2013-11-19 19:13:00,41.3,34.3,29.70,South,188,8.0,32.0,76,0.00,,---,0.16,VWS V12.07,2013-11-20 03:13:00,
2013-11-19 19:16:00,41.3,34.3,29.70,South,176,7.0,32.0,76,0.00,,---,0.16,VWS V12.07,2013-11-20 03:16:00,
2013-11-19 19:17:00,41.2,34.2,29.70,SSE,160,7.0,32.0,76,0.00,,---,0.16,VWS V12.07,2013-11-20 03:17:00,
2013-11-19 19:18:00,41.2,34.2,29.70,SSE,160,7.0,32.0,76,0.00,,---,0.16,VWS V12.07,2013-11-20 03:18:00,
2013-11-19 19:20:00,41.3,34.0,29.70,South,174,3.0,32.0,75,0.00,,---,0.16,VWS V12.07,2013-11-20 03:20:00,
2013-11-19 19:21:00,41.2,33.9,29.70,SSW,203,12.0,32.0,75,0.00,,---,0.16,VWS V12.07,2013-11-20 03:21:00,
2013-11-19 19:22:00,41.2,33.9,29.70,South,178,6.0,32.0,75,0.00,,---,0.16,VWS V12.07,2013-11-20 03:22:00,
2013-11-19 19:23:00,41.2,33.9,29.70,SSW,199,11.0,32.0,75,0.00,,---,0.16,VWS V12.07,2013-11-20 03:23:00,
2013-11-19 19:25:00,41.2,34.5,29.70,South,179,11.0,32.0,77,0.00,,---,0.16,VWS V12.07,2013-11-20 03:25:00,
2013-11-19 19:26:00,41.2,34.5,29.70,South,178,7.0,32.0,77,0.00,,---,0.16,VWS V12.07,2013-11-20 03:26:00,
2013-11-19 19:28:00,41.2,34.5,29.70,SSW,198,5.0,32.0,77,0.00,,---,0.16,VWS V12.07,2013-11-20 03:28:00,
2013-11-19 19:29:00,41.2,34.5,29.70,SSW,202,6.0,32.0,77,0.00,,---,0.16,VWS V12.07,2013-11-20 03:29:00,
2013-11-19 19:30:00,41.2,34.2,29.70,SW,226,7.0,32.0,76,0.00,,---,0.16,VWS V12.07,2013-11-20 03:30:00,
2013-11-19 19:32:00,41.2,33.9,29.70,SSW,206,7.0,32.0,75,0.00,,---,0.16,VWS V12.07,2013-11-20 03:32:00,
2013-11-19 19:33:00,41.2,33.9,29.70,South,189,5.0,32.0,75,0.00,,---,0.16,VWS V12.07,2013-11-20 03:33:00,
2013-11-19 19:34:00,41.1,34.8,29.70,SSW,205,6.0,32.0,78,0.00,,---,0.16,VWS V12.07,2013-11-20 03:34:00,
2013-11-19 19:35:00,41.1,34.8,29.70,SSW,193,7.0,32.0,78,0.00,,---,0.16,VWS V12.07,2013-11-20 03:35:00,
2013-11-19 19:38:00,41.1,34.5,29.71,South,184,5.0,32.0,77,0.00,,---,0.16,VWS V12.07,2013-11-20 03:38:00,
2013-11-19 19:39:00,40.9,33.9,29.71,South,178,7.0,32.0,76,0.00,,---,0.16,VWS V12.07,2013-11-20 03:39:00,
2013-11-19 19:40:00,41.1,34.1,29.71,South,185,5.0,32.0,76,0.00,,---,0.16,VWS V12.07,2013-11-20 03:40:00,
2013-11-19 19:41:00,41.1,34.1,29.71,South,189,5.0,32.0,76,0.00,,---,0.16,VWS V12.07,2013-11-20 03:41:00,
2013-11-19 19:43:00,41.1,34.1,29.71,South,184,6.0,32.0,76,0.00,,---,0.16,VWS V12.07,2013-11-20 03:43:00,
2013-11-19 19:44:00,41.1,34.1,29.71,South,188,11.0,32.0,76,0.00,,---,0.16,VWS V12.07,2013-11-20 03:44:00,
2013-11-19 19:45:00,40.9,33.9,29.71,South,188,7.0,32.0,76,0.00,,---,0.16,VWS V12.07,2013-11-20 03:45:00,
2013-11-19 19:46:00,40.9,33.9,29.71,South,188,6.0,32.0,76,0.00,,---,0.16,VWS V12.07,2013-11-20 03:46:00,
2013-11-19 19:49:00,40.9,34.3,29.71,South,188,8.0,32.0,77,0.00,,---,0.16,VWS V12.07,2013-11-20 03:49:00,
2013-11-19 19:50:00,40.9,34.3,29.71,SSW,210,7.0,32.0,77,0.00,,---,0.16,VWS V12.07,2013-11-20 03:50:00,
2013-11-19 19:51:00,40.9,34.3,29.71,South,182,8.0,32.0,77,0.00,,---,0.16,VWS V12.07,2013-11-20 03:51:00,
2013-11-19 19:52:00,40.9,34.3,29.71,South,188,7.0,32.0,77,0.00,,---,0.16,VWS V12.07,2013-11-20 03:52:00,
2013-11-19 19:54:00,40.9,34.3,29.71,South,191,11.0,32.0,77,0.00,,---,0.16,VWS V12.07,2013-11-20 03:54:00,
2013-11-19 19:56:00,40.9,33.6,29.71,SSW,192,11.0,32.0,75,0.00,,---,0.16,VWS V12.07,2013-11-20 03:56:00,
2013-11-19 19:57:00,40.9,33.6,29.71,South,184,8.0,32.0,75,0.00,,---,0.16,VWS V12.07,2013-11-20 03:57:00,
2013-11-19 19:58:00,40.9,33.6,29.71,South,182,5.0,32.0,75,0.00,,---,0.16,VWS V12.07,2013-11-20 03:58:00,
2013-11-19 19:59:00,40.9,33.6,29.71,South,181,5.0,32.0,75,0.00,,---,0.16,VWS V12.07,2013-11-20 03:59:00,
2013-11-19 20:00:00,40.9,33.6,29.71,South,179,5.0,32.0,75,0.00,,---,0.16,VWS V12.07,2013-11-20 04:00:00,
2013-11-19 20:02:00,40.9,33.3,29.71,South,191,10.0,32.0,74,0.00,,---,0.16,VWS V12.07,2013-11-20 04:02:00,
2013-11-19 20:03:00,40.9,33.3,29.71,SSW,195,8.0,32.0,74,0.00,,---,0.16,VWS V12.07,2013-11-20 04:03:00,
2013-11-19 20:04:00,40.9,33.3,29.71,SSE,167,7.0,32.0,74,0.00,,---,0.16,VWS V12.07,2013-11-20 04:04:00,
2013-11-19 20:05:00,40.9,33.9,29.71,South,186,7.0,32.0,76,0.00,,---,0.16,VWS V12.07,2013-11-20 04:05:00,
2013-11-19 20:07:00,40.8,34.2,29.70,South,186,8.0,32.0,77,0.00,,---,0.16,VWS V12.07,2013-11-20 04:07:00,
2013-11-19 20:08:00,40.8,34.2,29.70,South,189,8.0,32.0,77,0.00,,---,0.16,VWS V12.07,2013-11-20 04:08:00,
2013-11-19 20:09:00,40.8,33.8,29.70,SSE,167,5.0,32.0,76,0.00,,---,0.16,VWS V12.07,2013-11-20 04:09:00,
2013-11-19 20:10:00,40.8,33.5,29.70,South,184,3.0,32.0,75,0.00,,---,0.16,VWS V12.07,2013-11-20 04:10:00,
2013-11-19 20:11:00,40.8,33.5,29.70,South,184,5.0,32.0,75,0.00,,---,0.16,VWS V12.07,2013-11-20 04:11:00,
2013-11-19 20:12:00,40.8,33.5,29.70,SSW,208,7.0,32.0,75,0.00,,---,0.16,VWS V12.07,2013-11-20 04:12:00,
2013-11-19 20:14:00,40.6,33.3,29.70,SSW,193,8.0,32.0,75,0.00,,---,0.16,VWS V12.07,2013-11-20 04:14:00,
2013-11-19 20:15:00,40.6,33.6,29.70,South,178,7.0,32.0,76,0.00,,---,0.16,VWS V12.07,2013-11-20 04:15:00,
2013-11-19 20:16:00,40.6,33.6,29.70,South,188,13.0,32.0,76,0.00,,---,0.16,VWS V12.07,2013-11-20 04:16:00,
2013-11-19 20:17:00,40.6,33.6,29.70,South,184,6.0,32.0,76,0.00,,---,0.16,VWS V12.07,2013-11-20 04:17:00,
2013-11-19 20:19:00,40.6,33.6,29.70,South,176,4.0,32.0,76,0.00,,---,0.16,VWS V12.07,2013-11-20 04:19:00,
2013-11-19 20:20:00,40.6,33.6,29.70,SSE,157,7.0,32.0,76,0.00,,---,0.16,VWS V12.07,2013-11-20 04:20:00,
2013-11-19 20:22:00,40.6,33.6,29.70,SSW,208,10.0,32.0,76,0.00,,---,0.16,VWS V12.07,2013-11-20 04:22:00,
2013-11-19 20:25:00,40.6,33.3,29.70,South,188,7.0,32.0,75,0.00,,---,0.16,VWS V12.07,2013-11-20 04:25:00,
2013-11-19 20:26:00,40.6,33.3,29.70,SSW,198,5.0,32.0,75,0.00,,---,0.16,VWS V12.07,2013-11-20 04:26:00,
2013-11-19 20:27:00,40.6,33.3,29.70,South,171,6.0,32.0,75,0.00,,---,0.16,VWS V12.07,2013-11-20 04:27:00,
2013-11-19 20:28:00,40.6,33.3,29.70,SSW,198,7.0,32.0,75,0.00,,---,0.16,VWS V12.07,2013-11-20 04:28:00,
2013-11-19 20:30:00,40.6,33.3,29.70,South,191,9.0,32.0,75,0.00,,---,0.16,VWS V12.07,2013-11-20 04:30:00,
2013-11-19 20:32:00,40.5,33.5,29.70,SSW,198,6.0,32.0,76,0.00,,---,0.16,VWS V12.07,2013-11-20 04:32:00,
2013-11-19 20:33:00,40.5,33.5,29.70,South,182,5.0,32.0,76,0.00,,---,0.16,VWS V12.07,2013-11-20 04:33:00,
2013-11-19 20:35:00,40.5,33.5,29.70,SSW,212,7.0,32.0,76,0.00,,---,0.16,VWS V12.07,2013-11-20 04:35:00,
2013-11-19 20:37:00,40.5,33.5,29.72,SSW,198,5.0,32.0,76,0.00,,---,0.16,VWS V12.07,2013-11-20 04:37:00,
2013-11-19 20:38:00,40.5,33.5,29.72,SSW,203,7.0,32.0,76,0.00,,---,0.16,VWS V12.07,2013-11-20 04:38:00,
2013-11-19 20:39:00,40.5,33.2,29.72,SW,217,7.0,32.0,75,0.00,,---,0.16,VWS V12.07,2013-11-20 04:39:00,
2013-11-19 20:40:00,40.5,33.2,29.72,South,181,7.0,32.0,75,0.00,,---,0.16,VWS V12.07,2013-11-20 04:40:00,
2013-11-19 20:42:00,40.5,33.2,29.72,South,172,5.0,32.0,75,0.00,,---,0.16,VWS V12.07,2013-11-20 04:42:00,
2013-11-19 20:43:00,40.5,33.2,29.72,South,182,9.0,32.0,75,0.00,,---,0.16,VWS V12.07,2013-11-20 04:43:00,
2013-11-19 20:44:00,40.5,33.2,29.72,South,188,7.0,32.0,75,0.00,,---,0.16,VWS V12.07,2013-11-20 04:44:00,
2013-11-19 20:45:00,40.5,33.2,29.72,South,184,7.0,32.0,75,0.00,,---,0.16,VWS V12.07,2013-11-20 04:45:00,
2013-11-19 20:47:00,40.5,33.2,29.72,South,191,5.0,32.0,75,0.00,,---,0.16,VWS V12.07,2013-11-20 04:47:00,
2013-11-19 20:49:00,40.5,33.2,29.72,SSW,199,7.0,32.0,75,0.00,,---,0.16,VWS V12.07,2013-11-20 04:49:00,
2013-11-19 20:50:00,40.5,33.2,29.72,SSW,195,10.0,32.0,75,0.00,,---,0.16,VWS V12.07,2013-11-20 04:50:00,
2013-11-19 20:51:00,40.5,33.2,29.72,SW,215,7.0,32.0,75,0.00,,---,0.16,VWS V12.07,2013-11-20 04:51:00,
2013-11-19 20:53:00,40.3,33.0,29.72,South,189,6.0,32.0,75,0.00,,---,0.16,VWS V12.07,2013-11-20 04:53:00,
2013-11-19 20:55:00,40.3,33.7,29.72,SSW,195,5.0,32.0,77,0.00,,---,0.16,VWS V12.07,2013-11-20 04:55:00,
2013-11-19 20:56:00,40.3,33.7,29.72,SSW,212,6.0,32.0,77,0.00,,---,0.16,VWS V12.07,2013-11-20 04:56:00,
2013-11-19 20:58:00,40.3,33.3,29.72,South,182,3.0,32.0,76,0.00,,---,0.16,VWS V12.07,2013-11-20 04:58:00,
2013-11-19 21:00:00,37.9,31.4,29.76,South,175,0.0,10.0,77,0.00,,---,0.16,VWS V12.07,2013-11-20 05:00:00,
2013-11-19 21:01:00,40.2,33.2,29.72,South,186,6.0,32.0,76,0.00,,---,0.16,VWS V12.07,2013-11-20 05:01:00,
2013-11-19 21:02:00,40.2,32.9,29.72,SSW,198,7.0,32.0,75,0.00,,---,0.16,VWS V12.07,2013-11-20 05:02:00,
2013-11-19 21:06:00,40.3,33.0,29.72,SSW,195,7.0,32.0,75,0.00,,---,0.16,VWS V12.07,2013-11-20 05:06:00,
2013-11-19 21:07:00,40.3,33.7,29.72,South,179,6.0,32.0,77,0.00,,---,0.16,VWS V12.07,2013-11-20 05:07:00,
2013-11-19 21:08:00,40.3,33.7,29.72,South,182,5.0,32.0,77,0.00,,---,0.16,VWS V12.07,2013-11-20 05:08:00,
2013-11-19 21:10:00,37.8,31.6,29.76,South,175,0.0,2.0,78,0.00,,---,0.16,VWS V12.07,2013-11-20 05:10:00,
2013-11-19 21:11:00,40.2,33.2,29.72,SSW,192,7.0,32.0,76,0.00,,---,0.16,VWS V12.07,2013-11-20 05:11:00,
2013-11-19 21:12:00,40.2,33.2,29.72,South,176,6.0,32.0,76,0.00,,---,0.16,VWS V12.07,2013-11-20 05:12:00,
2013-11-19 21:13:00,40.2,33.2,29.72,South,184,10.0,32.0,76,0.00,,---,0.16,VWS V12.07,2013-11-20 05:13:00,
2013-11-19 21:17:00,40.2,33.6,29.72,SSW,202,12.0,32.0,77,0.00,,---,0.16,VWS V12.07,2013-11-20 05:17:00,
2013-11-19 21:18:00,40.2,33.6,29.72,South,184,10.0,32.0,77,0.00,,---,0.16,VWS V12.07,2013-11-20 05:18:00,
2013-11-19 21:19:00,40.2,33.6,29.72,SSW,210,9.0,32.0,77,0.00,,---,0.16,VWS V12.07,2013-11-20 05:19:00,
2013-11-19 21:20:00,37.3,31.1,29.76,South,175,0.0,2.0,78,0.00,,---,0.16,VWS V12.07,2013-11-20 05:20:00,
2013-11-19 21:22:00,40.3,33.7,29.72,SSW,208,4.0,32.0,77,0.00,,---,0.16,VWS V12.07,2013-11-20 05:22:00,
2013-11-19 21:23:00,40.3,33.3,29.72,SSW,206,3.0,32.0,76,0.00,,---,0.16,VWS V12.07,2013-11-20 05:23:00,
2013-11-19 21:24:00,40.2,33.6,29.72,SSW,210,3.0,32.0,77,0.00,,---,0.16,VWS V12.07,2013-11-20 05:24:00,
2013-11-19 21:28:00,40.2,33.2,29.72,South,186,12.0,32.0,76,0.00,,---,0.16,VWS V12.07,2013-11-20 05:28:00,
2013-11-19 21:29:00,40.2,33.2,29.72,South,188,11.0,32.0,76,0.00,,---,0.16,VWS V12.07,2013-11-20 05:29:00,
2013-11-19 21:30:00,40.2,33.2,29.72,South,189,7.0,32.0,76,0.00,,---,0.16,VWS V12.07,2013-11-20 05:30:00,
2013-11-19 21:33:00,40.2,33.9,29.72,South,191,6.0,32.0,78,0.00,,---,0.16,VWS V12.07,2013-11-20 05:33:00,
2013-11-19 21:34:00,40.2,33.9,29.72,SW,222,6.0,32.0,78,0.00,,---,0.16,VWS V12.07,2013-11-20 05:34:00,
2013-11-19 21:36:00,40.2,33.9,29.72,South,185,7.0,32.0,78,0.00,,---,0.16,VWS V12.07,2013-11-20 05:36:00,
2013-11-19 21:38:00,40.2,33.9,29.73,South,186,5.0,32.0,78,0.00,,---,0.16,VWS V12.07,2013-11-20 05:38:00,
2013-11-19 21:39:00,40.2,33.9,29.73,South,186,5.0,32.0,78,0.00,,---,0.16,VWS V12.07,2013-11-20 05:39:00,
2013-11-19 21:40:00,40.2,33.6,29.73,South,185,5.0,32.0,77,0.00,,---,0.16,VWS V12.07,2013-11-20 05:40:00,
2013-11-19 21:42:00,40.2,33.6,29.73,South,185,5.0,32.0,77,0.00,,---,0.16,VWS V12.07,2013-11-20 05:42:00,
2013-11-19 21:44:00,40.2,33.6,29.73,South,185,5.0,32.0,77,0.00,,---,0.16,VWS V12.07,2013-11-20 05:44:00,
2013-11-19 21:45:00,40.1,33.5,29.73,South,185,4.0,32.0,77,0.00,,---,0.16,VWS V12.07,2013-11-20 05:45:00,
2013-11-19 21:47:00,40.2,33.9,29.73,South,191,5.0,32.0,78,0.00,,---,0.16,VWS V12.07,2013-11-20 05:47:00,
2013-11-19 21:49:00,40.1,33.5,29.73,South,188,4.0,32.0,77,0.00,,---,0.16,VWS V12.07,2013-11-20 05:49:00,
2013-11-19 21:50:00,40.1,33.5,29.73,SSW,208,6.0,32.0,77,0.00,,---,0.16,VWS V12.07,2013-11-20 05:50:00,
2013-11-19 21:51:00,40.1,33.5,29.73,South,182,7.0,32.0,77,0.00,,---,0.16,VWS V12.07,2013-11-20 05:51:00,
2013-11-19 21:52:00,40.1,33.5,29.72,South,184,7.0,32.0,77,0.00,,---,0.16,VWS V12.07,2013-11-20 05:52:00,
2013-11-19 21:54:00,40.1,33.5,29.72,South,189,10.0,32.0,77,0.00,,---,0.16,VWS V12.07,2013-11-20 05:54:00,
2013-11-19 21:55:00,40.1,33.5,29.72,South,178,7.0,32.0,77,0.00,,---,0.16,VWS V12.07,2013-11-20 05:55:00,
2013-11-19 21:56:00,40.1,33.5,29.72,SSW,193,5.0,32.0,77,0.00,,---,0.16,VWS V12.07,2013-11-20 05:56:00,
2013-11-19 21:58:00,40.1,33.8,29.72,South,184,6.0,32.0,78,0.00,,---,0.16,VWS V12.07,2013-11-20 05:58:00,
2013-11-19 21:59:00,40.1,33.8,29.72,South,182,2.0,32.0,78,0.00,,---,0.16,VWS V12.07,2013-11-20 05:59:00,
2013-11-19 22:00:00,40.1,33.8,29.72,South,182,3.0,32.0,78,0.00,,---,0.16,VWS V12.07,2013-11-20 06:00:00,
2013-11-19 22:01:00,39.9,33.6,29.72,South,185,7.0,32.0,78,0.00,,---,0.16,VWS V12.07,2013-11-20 06:01:00,
2013-11-19 22:02:00,39.9,33.6,29.72,South,182,5.0,32.0,78,0.00,,---,0.16,VWS V12.07,2013-11-20 06:02:00,
2013-11-19 22:04:00,39.9,33.6,29.72,South,188,10.0,32.0,78,0.00,,---,0.16,VWS V12.07,2013-11-20 06:04:00,
2013-11-19 22:05:00,39.9,33.3,29.72,SSW,199,3.0,32.0,77,0.00,,---,0.16,VWS V12.07,2013-11-20 06:05:00,
2013-11-19 22:06:00,39.9,33.3,29.72,South,186,7.0,32.0,77,0.00,,---,0.16,VWS V12.07,2013-11-20 06:06:00,
2013-11-19 22:07:00,39.9,33.0,29.72,SSW,196,3.0,32.0,76,0.00,,---,0.16,VWS V12.07,2013-11-20 06:07:00,
2013-11-19 22:09:00,39.9,33.3,29.72,SSW,199,6.0,32.0,77,0.00,,---,0.16,VWS V12.07,2013-11-20 06:09:00,
2013-11-19 22:10:00,39.9,33.3,29.72,South,188,10.0,32.0,77,0.00,,---,0.16,VWS V12.07,2013-11-20 06:10:00,
2013-11-19 22:11:00,39.9,33.3,29.72,SSW,196,11.0,32.0,77,0.00,,---,0.16,VWS V12.07,2013-11-20 06:11:00,
2013-11-19 22:12:00,39.9,33.6,29.72,South,185,10.0,32.0,78,0.00,,---,0.16,VWS V12.07,2013-11-20 06:12:00,
2013-11-19 22:13:00,39.9,33.6,29.72,SSW,192,7.0,32.0,78,0.00,,---,0.16,VWS V12.07,2013-11-20 06:13:00,
2013-11-19 22:15:00,39.9,33.6,29.72,South,185,7.0,32.0,78,0.00,,---,0.16,VWS V12.07,2013-11-20 06:15:00,
2013-11-19 22:16:00,39.9,33.6,29.72,SSW,193,7.0,32.0,78,0.00,,---,0.16,VWS V12.07,2013-11-20 06:16:00,
2013-11-19 22:17:00,39.9,33.0,29.72,South,188,6.0,32.0,76,0.00,,---,0.16,VWS V12.07,2013-11-20 06:17:00,
2013-11-19 22:18:00,39.9,33.0,29.72,South,188,3.0,32.0,76,0.00,,---,0.16,VWS V12.07,2013-11-20 06:18:00,
2013-11-19 22:21:00,39.9,33.0,29.72,South,185,7.0,32.0,76,0.00,,---,0.16,VWS V12.07,2013-11-20 06:21:00,
2013-11-19 22:22:00,39.9,33.0,29.73,South,181,7.0,32.0,76,0.00,,---,0.16,VWS V12.07,2013-11-20 06:22:00,
2013-11-19 22:23:00,39.9,33.0,29.73,South,185,7.0,32.0,76,0.00,,---,0.16,VWS V12.07,2013-11-20 06:23:00,
2013-11-19 22:24:00,39.9,33.0,29.73,South,185,7.0,32.0,76,0.00,,---,0.16,VWS V12.07,2013-11-20 06:24:00,
2013-11-19 22:26:00,39.9,33.0,29.73,South,189,2.0,32.0,76,0.00,,---,0.16,VWS V12.07,2013-11-20 06:26:00,
2013-11-19 22:27:00,39.8,32.9,29.73,South,189,3.0,32.0,76,0.00,,---,0.16,VWS V12.07,2013-11-20 06:27:00,
2013-11-19 22:28:00,39.8,32.9,29.73,SSW,199,4.0,32.0,76,0.00,,---,0.16,VWS V12.07,2013-11-20 06:28:00,
2013-11-19 22:29:00,39.8,32.9,29.73,SSW,196,4.0,32.0,76,0.00,,---,0.16,VWS V12.07,2013-11-20 06:29:00,
2013-11-19 22:31:00,39.8,33.2,29.73,South,188,3.0,32.0,77,0.00,,---,0.16,VWS V12.07,2013-11-20 06:31:00,
2013-11-19 22:32:00,39.8,33.2,29.73,South,191,7.0,32.0,77,0.00,,---,0.16,VWS V12.07,2013-11-20 06:32:00,
2013-11-19 22:34:00,39.8,32.9,29.73,South,191,8.0,32.0,76,0.00,,---,0.16,VWS V12.07,2013-11-20 06:34:00,
2013-11-19 22:35:00,39.8,32.9,29.73,South,188,6.0,32.0,76,0.00,,---,0.16,VWS V12.07,2013-11-20 06:35:00,
2013-11-19 22:36:00,39.8,33.2,29.73,South,185,4.0,32.0,77,0.00,,---,0.16,VWS V12.07,2013-11-20 06:36:00,
2013-11-19 22:37:00,39.6,33.3,29.73,SSW,202,3.0,32.0,78,0.00,,---,0.16,VWS V12.07,2013-11-20 06:37:00,
2013-11-19 22:39:00,39.6,33.3,29.73,SW,227,6.0,32.0,78,0.00,,---,0.16,VWS V12.07,2013-11-20 06:39:00,
2013-11-19 22:40:00,36.3,30.4,29.81,West,278,0.0,2.0,79,0.00,,---,0.16,VWS V12.07,2013-11-20 06:40:00,
2013-11-19 22:41:00,39.6,33.3,29.73,South,189,5.0,32.0,78,0.00,,---,0.16,VWS V12.07,2013-11-20 06:41:00,
2013-11-19 22:42:00,39.8,33.5,29.73,SSW,200,7.0,32.0,78,0.00,,---,0.16,VWS V12.07,2013-11-20 06:42:00,
2013-11-19 22:43:00,39.8,33.5,29.73,SSW,198,3.0,32.0,78,0.00,,---,0.16,VWS V12.07,2013-11-20 06:43:00,
2013-11-19 22:44:00,39.8,33.5,29.73,South,191,4.0,32.0,78,0.00,,---,0.16,VWS V12.07,2013-11-20 06:44:00,
2013-11-19 22:46:00,39.8,33.2,29.73,South,191,1.0,32.0,77,0.00,,---,0.16,VWS V12.07,2013-11-20 06:46:00,
2013-11-19 22:47:00,39.6,33.0,29.73,South,191,1.0,32.0,77,0.00,,---,0.16,VWS V12.07,2013-11-20 06:47:00,
2013-11-19 22:48:00,39.6,33.0,29.73,South,191,3.0,32.0,77,0.00,,---,0.16,VWS V12.07,2013-11-20 06:48:00,
2013-11-19 22:50:00,39.6,33.0,29.73,South,191,2.0,32.0,77,0.00,,---,0.16,VWS V12.07,2013-11-20 06:50:00,
2013-11-19 22:51:00,39.6,33.0,29.72,South,191,5.0,32.0,77,0.00,,---,0.16,VWS V12.07,2013-11-20 06:51:00,
2013-11-19 22:52:00,39.6,33.0,29.72,South,186,8.0,32.0,77,0.00,,---,0.16,VWS V12.07,2013-11-20 06:52:00,
2013-11-19 22:53:00,39.6,33.0,29.72,SSW,196,5.0,32.0,77,0.00,,---,0.16,VWS V12.07,2013-11-20 06:53:00,
2013-11-19 22:57:00,39.6,33.0,29.72,South,186,5.0,32.0,77,0.00,,---,0.16,VWS V12.07,2013-11-20 06:57:00,
2013-11-19 22:58:00,39.6,33.0,29.72,South,185,3.0,32.0,77,0.00,,---,0.16,VWS V12.07,2013-11-20 06:58:00,
2013-11-19 22:59:00,39.6,33.0,29.72,South,185,3.0,32.0,77,0.00,,---,0.16,VWS V12.07,2013-11-20 06:59:00,
2013-11-19 23:00:00,39.6,33.0,29.72,South,179,6.0,32.0,77,0.00,,---,0.16,VWS V12.07,2013-11-20 07:00:00,
2013-11-19 23:02:00,39.6,32.3,29.72,SSW,203,7.0,32.0,75,0.00,,---,0.16,VWS V12.07,2013-11-20 07:02:00,
2013-11-19 23:04:00,39.5,32.2,29.72,South,189,4.0,32.0,75,0.00,,---,0.16,VWS V12.07,2013-11-20 07:04:00,
2013-11-19 23:05:00,39.5,32.6,29.72,South,189,6.0,32.0,76,0.00,,---,0.16,VWS V12.07,2013-11-20 07:05:00,
2013-11-19 23:06:00,39.5,32.6,29.72,SSW,196,4.0,32.0,76,0.00,,---,0.16,VWS V12.07,2013-11-20 07:06:00,
2013-11-19 23:07:00,39.5,32.6,29.73,South,174,6.0,32.0,76,0.00,,---,0.16,VWS V12.07,2013-11-20 07:07:00,
2013-11-19 23:08:00,39.5,32.6,29.73,SSW,196,3.0,32.0,76,0.00,,---,0.16,VWS V12.07,2013-11-20 07:08:00,
2013-11-19 23:09:00,39.5,32.6,29.73,SSW,193,6.0,32.0,76,0.00,,---,0.16,VWS V12.07,2013-11-20 07:09:00,
2013-11-19 23:10:00,39.5,32.6,29.73,SSW,199,6.0,32.0,76,0.00,,---,0.16,VWS V12.07,2013-11-20 07:10:00,
2013-11-19 23:11:00,39.5,32.6,29.73,South,191,7.0,32.0,76,0.00,,---,0.16,VWS V12.07,2013-11-20 07:11:00,
2013-11-19 23:13:00,39.5,32.6,29.73,SSW,192,2.0,32.0,76,0.00,,---,0.16,VWS V12.07,2013-11-20 07:13:00,
2013-11-19 23:14:00,39.5,32.9,29.73,South,184,5.0,32.0,77,0.00,,---,0.16,VWS V12.07,2013-11-20 07:14:00,
2013-11-19 23:15:00,39.5,32.9,29.73,South,185,4.0,32.0,77,0.00,,---,0.16,VWS V12.07,2013-11-20 07:15:00,
2013-11-19 23:16:00,39.5,32.9,29.73,South,185,7.0,32.0,77,0.00,,---,0.16,VWS V12.07,2013-11-20 07:16:00,
2013-11-19 23:18:00,39.5,32.9,29.73,SSW,193,7.0,32.0,77,0.00,,---,0.16,VWS V12.07,2013-11-20 07:18:00,
2013-11-19 23:20:00,39.5,33.2,29.73,SSW,195,5.0,32.0,78,0.00,,---,0.16,VWS V12.07,2013-11-20 07:20:00,
2013-11-19 23:21:00,39.5,33.2,29.73,SSW,193,2.0,32.0,78,0.00,,---,0.16,VWS V12.07,2013-11-20 07:21:00,
2013-11-19 23:23:00,39.5,32.9,29.73,South,189,5.0,32.0,77,0.00,,---,0.16,VWS V12.07,2013-11-20 07:23:00,
2013-11-19 23:24:00,39.5,32.9,29.73,South,188,6.0,32.0,77,0.00,,---,0.16,VWS V12.07,2013-11-20 07:24:00,
2013-11-19 23:25:00,39.5,32.9,29.73,South,181,5.0,32.0,77,0.00,,---,0.16,VWS V12.07,2013-11-20 07:25:00,
2013-11-19 23:26:00,39.3,32.7,29.73,South,185,4.0,32.0,77,0.00,,---,0.16,VWS V12.07,2013-11-20 07:26:00,
2013-11-19 23:28:00,39.3,32.7,29.73,South,185,7.0,32.0,77,0.00,,---,0.16,VWS V12.07,2013-11-20 07:28:00,
2013-11-19 23:29:00,39.3,32.7,29.73,South,185,7.0,32.0,77,0.00,,---,0.16,VWS V12.07,2013-11-20 07:29:00,
2013-11-19 23:30:00,39.3,32.7,29.73,SSW,206,7.0,32.0,77,0.00,,---,0.16,VWS V12.07,2013-11-20 07:30:00,
2013-11-19 23:31:00,39.3,32.7,29.73,SSW,208,5.0,32.0,77,0.00,,---,0.16,VWS V12.07,2013-11-20 07:31:00,
2013-11-19 23:32:00,39.3,32.7,29.73,SSW,208,4.0,32.0,77,0.00,,---,0.16,VWS V12.07,2013-11-20 07:32:00,
2013-11-19 23:34:00,39.3,32.7,29.73,South,189,6.0,32.0,77,0.00,,---,0.16,VWS V12.07,2013-11-20 07:34:00,
2013-11-19 23:35:00,39.5,32.6,29.73,SSW,192,3.0,32.0,76,0.00,,---,0.16,VWS V12.07,2013-11-20 07:35:00,
2013-11-19 23:36:00,39.5,32.6,29.73,SSW,192,2.0,32.0,76,0.00,,---,0.16,VWS V12.07,2013-11-20 07:36:00,
2013-11-19 23:37:00,39.3,32.7,29.73,South,189,2.0,32.0,77,0.00,,---,0.16,VWS V12.07,2013-11-20 07:37:00,
2013-11-19 23:39:00,39.3,32.7,29.73,South,185,5.0,32.0,77,0.00,,---,0.16,VWS V12.07,2013-11-20 07:39:00,
2013-11-19 23:40:00,34.3,28.2,29.85,WNW,288,0.0,1.0,78,0.00,,---,0.16,VWS V12.07,2013-11-20 07:40:00,
2013-11-19 23:41:00,39.3,32.7,29.73,South,188,2.0,32.0,77,0.00,,---,0.16,VWS V12.07,2013-11-20 07:41:00,
2013-11-19 23:44:00,39.3,32.4,29.73,SSW,193,7.0,32.0,76,0.00,,---,0.16,VWS V12.07,2013-11-20 07:44:00,
2013-11-19 23:46:00,39.3,32.4,29.73,SSW,192,5.0,32.0,76,0.00,,---,0.16,VWS V12.07,2013-11-20 07:46:00,
2013-11-19 23:47:00,39.2,32.6,29.73,SSW,192,2.0,32.0,77,0.00,,---,0.16,VWS V12.07,2013-11-20 07:47:00,
2013-11-19 23:49:00,39.2,32.6,29.73,South,191,3.0,32.0,77,0.00,,---,0.16,VWS V12.07,2013-11-20 07:49:00,
2013-11-19 23:50:00,34.1,28.0,29.86,WNW,288,0.0,0.0,78,0.00,,---,0.16,VWS V12.07,2013-11-20 07:50:00,
2013-11-19 23:51:00,39.2,32.6,29.73,SSW,192,8.0,32.0,77,0.00,,---,0.16,VWS V12.07,2013-11-20 07:51:00,
2013-11-19 23:52:00,39.2,32.3,29.74,South,174,6.0,32.0,76,0.00,,---,0.16,VWS V12.07,2013-11-20 07:52:00,
2013-11-19 23:55:00,39.2,32.6,29.74,South,188,5.0,32.0,77,0.00,,---,0.16,VWS V12.07,2013-11-20 07:55:00,
2013-11-19 23:56:00,39.2,32.6,29.74,South,188,5.0,32.0,77,0.00,,---,0.16,VWS V12.07,2013-11-20 07:56:00,
2013-11-19 23:57:00,39.2,32.6,29.74,South,186,5.0,32.0,77,0.00,,---,0.16,VWS V12.07,2013-11-20 07:57:00,
2013-11-19 23:58:00,39.2,32.6,29.74,South,186,5.0,32.0,77,0.00,,---,0.16,VWS V12.07,2013-11-20 07:58:00,